Buffalo Lake, Minnesota
Current Conditions -  °F | °C
As of 3:32 AM on Thursday 18 Dec 2014 (Local Time) from KHCD Reporting Station
Scattered Clouds Scattered Clouds  
Wind Chill: 12°   Ceiling: Unl
Heat Index: 12°   Visibility: 7mi
Dew Point: 10°   Wind: 0mph
Humidity: 90%   Direction: NA
Pressure: 30.31"   Gusts: NA
Location:  44.74°N, 94.62°W
Report Text: KHCD 180932Z AUTO 00000KT 7SM SCT016 M11/M12 A3031 RMK AO2 T11121125
Loading
Personal Weather Stations






























Interactive Weather Map New forecast layout! Learn more

10-Day Weather Forecast

Advertisements
Track Severe Weather on mobile